sensor_id;sensor_type;location;lat;lon;timestamp;P1;durP1;ratioP1;P2;durP2;ratioP2
33794;SDS011;51430;52.242;21.118;2023-03-01T00:03:10;55.20;;;36.10;;
33794;SDS011;51430;52.242;21.118;2023-03-01T00:06:45;61.40;;;38.90;;
33794;SDS011;51430;52.242;21.118;2023-03-01T00:10:42;51.50;;;33.10;;
33794;SDS011;51430;52.242;21.118;2023-03-01T00:14:41;53.00;;;35.00;;
33794;SDS011;51430;52.242;21.118;2023-03-01T00:18:38;52.20;;;33.60;;
33794;SDS011;51430;52.242;21.118;2023-03-01T00:22:36;47.20;;;32.80;;
33794;SDS011;51430;52.242;21.118;2023-03-01T00:26:55;46.60;;;31.10;;
33794;SDS011;51430;52.242;21.118;2023-03-01T00:34:41;46.40;;;30.20;;
33794;SDS011;51430;52.242;21.118;2023-03-01T00:38:40;45.30;;;29.30;;
33794;SDS011;51430;52.242;21.118;2023-03-01T00:42:39;45.10;;;29.50;;
33794;SDS011;51430;52.242;21.118;2023-03-01T00:46:35;50.60;;;31.30;;
33794;SDS011;51430;52.242;21.118;2023-03-01T00:50:30;48.90;;;31.10;;
33794;SDS011;51430;52.242;21.118;2023-03-01T00:54:29;46.20;;;30.30;;
33794;SDS011;51430;52.242;21.118;2023-03-01T00:58:28;46.80;;;29.70;;
33794;SDS011;51430;52.242;21.118;2023-03-01T01:02:44;50.20;;;31.90;;
33794;SDS011;51430;52.242;21.118;2023-03-01T01:06:12;50.10;;;31.30;;
33794;SDS011;51430;52.242;21.118;2023-03-01T01:15:43;51.50;;;33.50;;
33794;SDS011;51430;52.242;21.118;2023-03-01T01:19:41;49.30;;;32.30;;
33794;SDS011;51430;52.242;21.118;2023-03-01T01:23:37;47.60;;;32.40;;
33794;SDS011;51430;52.242;21.118;2023-03-01T01:27:34;50.20;;;31.90;;
33794;SDS011;51430;52.242;21.118;2023-03-01T01:37:07;57.30;;;34.50;;
33794;SDS011;51430;52.242;21.118;2023-03-01T01:41:05;62.90;;;39.70;;
33794;SDS011;51430;52.242;21.118;2023-03-01T01:49:32;56.60;;;39.10;;
33794;SDS011;51430;52.242;21.118;2023-03-01T01:57:56;56.40;;;35.20;;
33794;SDS011;51430;52.242;21.118;2023-03-01T02:01:56;53.90;;;36.40;;
33794;SDS011;51430;52.242;21.118;2023-03-01T02:06:01;50.10;;;32.20;;
33794;SDS011;51430;52.242;21.118;2023-03-01T02:10:05;52.70;;;31.20;;
33794;SDS011;51430;52.242;21.118;2023-03-01T02:14:07;46.30;;;29.40;;
33794;SDS011;51430;52.242;21.118;2023-03-01T02:17:43;48.70;;;30.40;;
33794;SDS011;51430;52.242;21.118;2023-03-01T02:22:01;49.20;;;30.60;;
33794;SDS011;51430;52.242;21.118;2023-03-01T02:26:09;47.70;;;30.80;;
33794;SDS011;51430;52.242;21.118;2023-03-01T02:30:29;50.20;;;30.00;;
33794;SDS011;51430;52.242;21.118;2023-03-01T02:34:29;46.10;;;29.70;;
33794;SDS011;51430;52.242;21.118;2023-03-01T02:38:26;48.20;;;30.00;;
33794;SDS011;51430;52.242;21.118;2023-03-01T02:42:25;42.20;;;28.20;;
33794;SDS011;51430;52.242;21.118;2023-03-01T02:46:41;48.90;;;31.50;;
33794;SDS011;51430;52.242;21.118;2023-03-01T02:58:59;43.90;;;29.10;;
33794;SDS011;51430;52.242;21.118;2023-03-01T03:01:47;46.10;;;33.80;;
33794;SDS011;51430;52.242;21.118;2023-03-01T03:04:34;47.60;;;35.20;;
33794;SDS011;51430;52.242;21.118;2023-03-01T03:07:20;48.80;;;35.90;;
33794;SDS011;51430;52.242;21.118;2023-03-01T03:10:08;47.00;;;35.70;;
33794;SDS011;51430;52.242;21.118;2023-03-01T03:13:01;49.50;;;36.00;;
33794;SDS011;51430;52.242;21.118;2023-03-01T03:15:59;46.70;;;29.90;;
33794;SDS011;51430;52.242;21.118;2023-03-01T03:18:46;45.50;;;33.30;;
33794;SDS011;51430;52.242;21.118;2023-03-01T03:21:34;46.00;;;34.80;;
33794;SDS011;51430;52.242;21.118;2023-03-01T03:24:21;46.20;;;34.20;;
33794;SDS011;51430;52.242;21.118;2023-03-01T03:27:08;47.70;;;35.30;;
33794;SDS011;51430;52.242;21.118;2023-03-01T03:30:08;41.80;;;26.90;;
33794;SDS011;51430;52.242;21.118;2023-03-01T03:34:03;46.10;;;28.50;;
33794;SDS011;51430;52.242;21.118;2023-03-01T03:37:22;43.20;;;27.00;;
33794;SDS011;51430;52.242;21.118;2023-03-01T03:47:39;42.50;;;27.30;;
33794;SDS011;51430;52.242;21.118;2023-03-01T04:01:40;40.80;;;27.80;;
33794;SDS011;51430;52.242;21.118;2023-03-01T04:04:40;40.00;;;26.00;;
33794;SDS011;51430;52.242;21.118;2023-03-01T04:08:36;44.60;;;27.10;;
33794;SDS011;51430;52.242;21.118;2023-03-01T04:12:36;40.40;;;25.70;;
33794;SDS011;51430;52.242;21.118;2023-03-01T04:16:13;44.90;;;27.30;;
33794;SDS011;51430;52.242;21.118;2023-03-01T04:19:00;46.10;;;32.50;;
33794;SDS011;51430;52.242;21.118;2023-03-01T04:22:06;43.30;;;27.30;;
33794;SDS011;51430;52.242;21.118;2023-03-01T04:26:04;44.30;;;28.70;;
33794;SDS011;51430;52.242;21.118;2023-03-01T04:30:19;41.50;;;27.10;;
33794;SDS011;51430;52.242;21.118;2023-03-01T04:33:41;46.40;;;28.20;;
33794;SDS011;51430;52.242;21.118;2023-03-01T04:37:59;53.70;;;28.30;;
33794;SDS011;51430;52.242;21.118;2023-03-01T04:41:23;45.50;;;28.40;;
33794;SDS011;51430;52.242;21.118;2023-03-01T04:45:19;45.30;;;29.20;;
33794;SDS011;51430;52.242;21.118;2023-03-01T04:49:20;47.20;;;30.00;;
33794;SDS011;51430;52.242;21.118;2023-03-01T04:53:12;46.80;;;28.60;;
33794;SDS011;51430;52.242;21.118;2023-03-01T04:56:31;44.70;;;28.10;;
33794;SDS011;51430;52.242;21.118;2023-03-01T04:59:18;49.10;;;35.70;;
33794;SDS011;51430;52.242;21.118;2023-03-01T05:02:09;47.30;;;35.40;;
33794;SDS011;51430;52.242;21.118;2023-03-01T05:04:56;48.40;;;35.60;;
33794;SDS011;51430;52.242;21.118;2023-03-01T05:07:43;48.10;;;33.70;;
33794;SDS011;51430;52.242;21.118;2023-03-01T05:10:31;47.90;;;34.40;;
33794;SDS011;51430;52.242;21.118;2023-03-01T05:13:19;49.00;;;35.60;;
33794;SDS011;51430;52.242;21.118;2023-03-01T05:16:07;47.20;;;34.80;;
33794;SDS011;51430;52.242;21.118;2023-03-01T05:18:58;48.30;;;36.20;;
33794;SDS011;51430;52.242;21.118;2023-03-01T05:21:45;48.60;;;36.40;;
33794;SDS011;51430;52.242;21.118;2023-03-01T05:24:50;48.70;;;35.70;;
33794;SDS011;51430;52.242;21.118;2023-03-01T05:27:36;47.50;;;35.40;;
33794;SDS011;51430;52.242;21.118;2023-03-01T05:30:23;47.70;;;35.80;;
33794;SDS011;51430;52.242;21.118;2023-03-01T05:33:10;49.70;;;35.60;;
33794;SDS011;51430;52.242;21.118;2023-03-01T05:36:00;48.20;;;35.90;;
33794;SDS011;51430;52.242;21.118;2023-03-01T05:38:46;48.30;;;34.80;;
33794;SDS011;51430;52.242;21.118;2023-03-01T05:41:33;48.60;;;36.70;;
33794;SDS011;51430;52.242;21.118;2023-03-01T05:44:20;53.40;;;37.00;;
33794;SDS011;51430;52.242;21.118;2023-03-01T05:47:08;50.90;;;36.70;;
33794;SDS011;51430;52.242;21.118;2023-03-01T05:49:55;50.40;;;37.30;;
33794;SDS011;51430;52.242;21.118;2023-03-01T05:52:48;53.20;;;38.30;;
33794;SDS011;51430;52.242;21.118;2023-03-01T05:55:37;55.30;;;38.70;;
33794;SDS011;51430;52.242;21.118;2023-03-01T05:58:25;50.00;;;37.30;;
33794;SDS011;51430;52.242;21.118;2023-03-01T06:01:13;52.50;;;37.50;;
33794;SDS011;51430;52.242;21.118;2023-03-01T06:03:59;50.40;;;38.00;;
33794;SDS011;51430;52.242;21.118;2023-03-01T06:06:48;50.50;;;37.50;;
33794;SDS011;51430;52.242;21.118;2023-03-01T06:09:51;49.50;;;32.20;;
33794;SDS011;51430;52.242;21.118;2023-03-01T06:12:39;54.60;;;37.60;;
33794;SDS011;51430;52.242;21.118;2023-03-01T06:15:30;54.90;;;38.10;;
33794;SDS011;51430;52.242;21.118;2023-03-01T06:18:17;53.60;;;37.60;;
33794;SDS011;51430;52.242;21.118;2023-03-01T06:21:05;52.40;;;37.70;;
33794;SDS011;51430;52.242;21.118;2023-03-01T06:23:55;51.60;;;37.30;;
33794;SDS011;51430;52.242;21.118;2023-03-01T06:26:42;49.40;;;36.30;;
33794;SDS011;51430;52.242;21.118;2023-03-01T06:29:31;55.10;;;37.30;;
33794;SDS011;51430;52.242;21.118;2023-03-01T06:32:18;50.00;;;35.60;;
33794;SDS011;51430;52.242;21.118;2023-03-01T06:35:06;48.30;;;36.00;;
33794;SDS011;51430;52.242;21.118;2023-03-01T06:37:52;48.00;;;36.30;;
33794;SDS011;51430;52.242;21.118;2023-03-01T06:40:41;47.90;;;34.80;;
33794;SDS011;51430;52.242;21.118;2023-03-01T06:43:27;46.30;;;34.80;;
33794;SDS011;51430;52.242;21.118;2023-03-01T06:46:14;46.10;;;34.90;;
33794;SDS011;51430;52.242;21.118;2023-03-01T06:49:02;48.00;;;34.60;;
33794;SDS011;51430;52.242;21.118;2023-03-01T06:56:16;42.80;;;31.80;;
33794;SDS011;51430;52.242;21.118;2023-03-01T06:59:03;46.20;;;33.40;;
33794;SDS011;51430;52.242;21.118;2023-03-01T07:01:49;45.30;;;32.90;;
33794;SDS011;51430;52.242;21.118;2023-03-01T07:04:36;44.60;;;32.10;;
33794;SDS011;51430;52.242;21.118;2023-03-01T07:07:23;41.10;;;30.70;;
33794;SDS011;51430;52.242;21.118;2023-03-01T07:14:33;39.10;;;29.10;;
33794;SDS011;51430;52.242;21.118;2023-03-01T07:17:19;42.50;;;29.90;;
33794;SDS011;51430;52.242;21.118;2023-03-01T07:24:29;42.00;;;29.30;;
33794;SDS011;51430;52.242;21.118;2023-03-01T07:30:11;38.20;;;24.80;;
33794;SDS011;51430;52.242;21.118;2023-03-01T07:33:28;33.80;;;23.40;;
33794;SDS011;51430;52.242;21.118;2023-03-01T07:37:26;38.20;;;24.40;;
33794;SDS011;51430;52.242;21.118;2023-03-01T07:41:22;36.40;;;24.60;;
33794;SDS011;51430;52.242;21.118;2023-03-01T07:45:28;34.20;;;22.60;;
33794;SDS011;51430;52.242;21.118;2023-03-01T07:48:18;36.00;;;24.30;;
33794;SDS011;51430;52.242;21.118;2023-03-01T07:55:00;31.50;;;23.80;;
33794;SDS011;51430;52.242;21.118;2023-03-01T07:57:47;31.10;;;23.30;;
33794;SDS011;51430;52.242;21.118;2023-03-01T08:01:02;27.30;;;20.30;;
33794;SDS011;51430;52.242;21.118;2023-03-01T08:04:39;30.90;;;20.00;;
33794;SDS011;51430;52.242;21.118;2023-03-01T08:18:57;31.20;;;20.20;;
33794;SDS011;51430;52.242;21.118;2023-03-01T09:00:50;29.10;;;19.70;;
33794;SDS011;51430;52.242;21.118;2023-03-01T09:25:07;24.10;;;16.60;;
33794;SDS011;51430;52.242;21.118;2023-03-01T09:27:56;23.10;;;19.50;;
33794;SDS011;51430;52.242;21.118;2023-03-01T09:30:47;26.90;;;20.90;;
33794;SDS011;51430;52.242;21.118;2023-03-01T09:33:34;24.60;;;19.70;;
33794;SDS011;51430;52.242;21.118;2023-03-01T09:41:23;22.60;;;15.60;;
33794;SDS011;51430;52.242;21.118;2023-03-01T09:55:11;19.80;;;14.50;;
33794;SDS011;51430;52.242;21.118;2023-03-01T10:08:41;21.00;;;14.10;;
33794;SDS011;51430;52.242;21.118;2023-03-01T10:11:38;17.00;;;13.60;;
33794;SDS011;51430;52.242;21.118;2023-03-01T10:14:44;22.40;;;13.60;;
33794;SDS011;51430;52.242;21.118;2023-03-01T10:17:58;19.60;;;14.80;;
33794;SDS011;51430;52.242;21.118;2023-03-01T10:22:04;23.00;;;15.90;;
33794;SDS011;51430;52.242;21.118;2023-03-01T10:30:55;20.10;;;15.20;;
33794;SDS011;51430;52.242;21.118;2023-03-01T10:38:06;20.80;;;16.00;;
33794;SDS011;51430;52.242;21.118;2023-03-01T10:46:36;19.40;;;14.50;;
33794;SDS011;51430;52.242;21.118;2023-03-01T10:49:24;20.10;;;16.00;;
33794;SDS011;51430;52.242;21.118;2023-03-01T10:52:19;20.40;;;16.60;;
33794;SDS011;51430;52.242;21.118;2023-03-01T11:03:38;19.50;;;14.20;;
33794;SDS011;51430;52.242;21.118;2023-03-01T11:07:10;19.50;;;14.50;;
33794;SDS011;51430;52.242;21.118;2023-03-01T11:11:01;23.50;;;16.20;;
33794;SDS011;51430;52.242;21.118;2023-03-01T11:25:00;17.60;;;14.70;;
33794;SDS011;51430;52.242;21.118;2023-03-01T11:27:57;20.60;;;16.30;;
33794;SDS011;51430;52.242;21.118;2023-03-01T11:34:03;18.70;;;15.60;;
33794;SDS011;51430;52.242;21.118;2023-03-01T11:36:58;21.00;;;16.60;;
33794;SDS011;51430;52.242;21.118;2023-03-01T11:39:47;20.80;;;15.80;;
33794;SDS011;51430;52.242;21.118;2023-03-01T11:42:48;18.40;;;15.60;;
33794;SDS011;51430;52.242;21.118;2023-03-01T11:45:53;19.80;;;15.70;;
33794;SDS011;51430;52.242;21.118;2023-03-01T11:48:52;17.90;;;15.30;;
33794;SDS011;51430;52.242;21.118;2023-03-01T12:00:58;16.40;;;13.20;;
33794;SDS011;51430;52.242;21.118;2023-03-01T12:06:52;15.20;;;12.60;;
33794;SDS011;51430;52.242;21.118;2023-03-01T12:09:59;15.80;;;12.80;;
33794;SDS011;51430;52.242;21.118;2023-03-01T12:13:14;16.60;;;13.30;;
33794;SDS011;51430;52.242;21.118;2023-03-01T12:16:07;15.30;;;12.70;;
33794;SDS011;51430;52.242;21.118;2023-03-01T12:25:58;14.70;;;12.70;;
33794;SDS011;51430;52.242;21.118;2023-03-01T12:28:51;14.30;;;12.00;;
33794;SDS011;51430;52.242;21.118;2023-03-01T12:35:05;12.70;;;11.30;;
33794;SDS011;51430;52.242;21.118;2023-03-01T12:47:46;13.90;;;10.80;;
33794;SDS011;51430;52.242;21.118;2023-03-01T12:50:47;11.80;;;10.20;;
33794;SDS011;51430;52.242;21.118;2023-03-01T12:53:39;12.70;;;10.10;;
33794;SDS011;51430;52.242;21.118;2023-03-01T12:56:28;11.40;;;10.10;;
33794;SDS011;51430;52.242;21.118;2023-03-01T12:59:23;11.90;;;9.40;;
33794;SDS011;51430;52.242;21.118;2023-03-01T13:08:31;11.50;;;10.10;;
33794;SDS011;51430;52.242;21.118;2023-03-01T13:11:54;10.90;;;9.80;;
33794;SDS011;51430;52.242;21.118;2023-03-01T13:14:44;11.10;;;10.00;;
33794;SDS011;51430;52.242;21.118;2023-03-01T13:18:26;10.70;;;9.60;;
33794;SDS011;51430;52.242;21.118;2023-03-01T13:21:30;12.30;;;10.70;;
33794;SDS011;51430;52.242;21.118;2023-03-01T13:24:28;12.40;;;11.10;;
33794;SDS011;51430;52.242;21.118;2023-03-01T13:27:35;12.60;;;11.30;;
33794;SDS011;51430;52.242;21.118;2023-03-01T13:39:31;14.20;;;12.30;;
33794;SDS011;51430;52.242;21.118;2023-03-01T13:42:33;15.70;;;12.60;;
33794;SDS011;51430;52.242;21.118;2023-03-01T13:45:33;14.80;;;12.90;;
33794;SDS011;51430;52.242;21.118;2023-03-01T13:48:22;15.70;;;11.80;;
33794;SDS011;51430;52.242;21.118;2023-03-01T13:51:34;15.20;;;11.60;;
33794;SDS011;51430;52.242;21.118;2023-03-01T13:54:31;15.00;;;11.40;;
33794;SDS011;51430;52.242;21.118;2023-03-01T13:57:21;16.80;;;12.30;;
33794;SDS011;51430;52.242;21.118;2023-03-01T14:03:19;15.00;;;13.10;;
33794;SDS011;51430;52.242;21.118;2023-03-01T14:09:25;16.60;;;13.70;;
33794;SDS011;51430;52.242;21.118;2023-03-01T14:15:29;13.50;;;12.00;;
33794;SDS011;51430;52.242;21.118;2023-03-01T14:18:22;14.70;;;13.10;;
33794;SDS011;51430;52.242;21.118;2023-03-01T14:21:14;15.60;;;12.80;;
33794;SDS011;51430;52.242;21.118;2023-03-01T14:24:01;14.30;;;12.60;;
33794;SDS011;51430;52.242;21.118;2023-03-01T14:26:47;17.60;;;12.70;;
33794;SDS011;51430;52.242;21.118;2023-03-01T14:41:58;16.10;;;13.00;;
33794;SDS011;51430;52.242;21.118;2023-03-01T14:45:19;13.40;;;11.70;;
33794;SDS011;51430;52.242;21.118;2023-03-01T14:48:54;13.80;;;11.20;;
33794;SDS011;51430;52.242;21.118;2023-03-01T14:53:03;14.30;;;12.00;;
33794;SDS011;51430;52.242;21.118;2023-03-01T14:56:45;13.40;;;11.40;;
33794;SDS011;51430;52.242;21.118;2023-03-01T15:00:49;14.10;;;11.20;;
33794;SDS011;51430;52.242;21.118;2023-03-01T15:04:14;17.80;;;13.30;;
33794;SDS011;51430;52.242;21.118;2023-03-01T15:07:56;20.50;;;13.50;;
33794;SDS011;51430;52.242;21.118;2023-03-01T15:19:02;21.00;;;13.80;;
33794;SDS011;51430;52.242;21.118;2023-03-01T15:22:42;23.70;;;15.70;;
33794;SDS011;51430;52.242;21.118;2023-03-01T15:26:22;18.60;;;15.50;;
33794;SDS011;51430;52.242;21.118;2023-03-01T15:58:29;24.60;;;17.30;;
33794;SDS011;51430;52.242;21.118;2023-03-01T16:13:16;22.40;;;17.60;;
33794;SDS011;51430;52.242;21.118;2023-03-01T17:40:43;23.20;;;15.80;;
33794;SDS011;51430;52.242;21.118;2023-03-01T17:43:30;23.50;;;18.60;;
33794;SDS011;51430;52.242;21.118;2023-03-01T17:46:19;26.60;;;21.00;;
33794;SDS011;51430;52.242;21.118;2023-03-01T17:49:04;23.50;;;18.40;;
33794;SDS011;51430;52.242;21.118;2023-03-01T17:51:56;24.50;;;18.30;;
33794;SDS011;51430;52.242;21.118;2023-03-01T17:55:01;20.20;;;15.20;;
33794;SDS011;51430;52.242;21.118;2023-03-01T18:36:34;18.60;;;14.90;;
33794;SDS011;51430;52.242;21.118;2023-03-01T18:50:03;19.60;;;15.00;;
33794;SDS011;51430;52.242;21.118;2023-03-01T19:18:19;23.80;;;17.20;;
33794;SDS011;51430;52.242;21.118;2023-03-01T19:21:50;23.60;;;16.30;;
33794;SDS011;51430;52.242;21.118;2023-03-01T19:35:27;27.80;;;17.60;;
33794;SDS011;51430;52.242;21.118;2023-03-01T19:38:18;27.40;;;20.20;;
33794;SDS011;51430;52.242;21.118;2023-03-01T19:41:32;25.50;;;19.00;;
33794;SDS011;51430;52.242;21.118;2023-03-01T19:44:21;26.90;;;19.60;;
33794;SDS011;51430;52.242;21.118;2023-03-01T19:47:11;25.40;;;20.60;;
33794;SDS011;51430;52.242;21.118;2023-03-01T19:49:58;29.10;;;23.20;;
33794;SDS011;51430;52.242;21.118;2023-03-01T19:52:46;26.00;;;21.50;;
33794;SDS011;51430;52.242;21.118;2023-03-01T19:55:34;29.60;;;22.60;;
33794;SDS011;51430;52.242;21.118;2023-03-01T19:58:39;26.10;;;18.30;;
33794;SDS011;51430;52.242;21.118;2023-03-01T20:01:26;30.10;;;23.60;;
33794;SDS011;51430;52.242;21.118;2023-03-01T20:04:18;32.80;;;25.50;;
33794;SDS011;51430;52.242;21.118;2023-03-01T20:07:09;32.10;;;25.10;;
33794;SDS011;51430;52.242;21.118;2023-03-01T20:09:57;31.50;;;24.50;;
33794;SDS011;51430;52.242;21.118;2023-03-01T20:12:45;36.70;;;25.20;;
33794;SDS011;51430;52.242;21.118;2023-03-01T20:15:32;32.30;;;25.30;;
33794;SDS011;51430;52.242;21.118;2023-03-01T20:18:23;30.70;;;25.00;;
33794;SDS011;51430;52.242;21.118;2023-03-01T20:21:10;34.40;;;26.20;;
33794;SDS011;51430;52.242;21.118;2023-03-01T20:24:10;35.40;;;26.20;;
33794;SDS011;51430;52.242;21.118;2023-03-01T20:26:59;32.20;;;26.10;;
33794;SDS011;51430;52.242;21.118;2023-03-01T20:29:46;30.90;;;24.30;;
33794;SDS011;51430;52.242;21.118;2023-03-01T20:32:34;31.80;;;25.10;;
33794;SDS011;51430;52.242;21.118;2023-03-01T20:35:21;31.40;;;24.50;;
33794;SDS011;51430;52.242;21.118;2023-03-01T20:38:09;30.10;;;23.20;;
33794;SDS011;51430;52.242;21.118;2023-03-01T20:41:00;36.20;;;28.20;;
33794;SDS011;51430;52.242;21.118;2023-03-01T20:43:55;35.20;;;27.70;;
33794;SDS011;51430;52.242;21.118;2023-03-01T20:46:44;37.00;;;28.80;;
33794;SDS011;51430;52.242;21.118;2023-03-01T20:49:31;37.60;;;28.00;;
33794;SDS011;51430;52.242;21.118;2023-03-01T20:52:23;38.10;;;29.70;;
33794;SDS011;51430;52.242;21.118;2023-03-01T20:55:10;34.60;;;28.00;;
33794;SDS011;51430;52.242;21.118;2023-03-01T20:57:58;40.90;;;32.20;;
33794;SDS011;51430;52.242;21.118;2023-03-01T21:00:44;37.20;;;28.30;;
33794;SDS011;51430;52.242;21.118;2023-03-01T21:05:05;35.90;;;27.10;;
33794;SDS011;51430;52.242;21.118;2023-03-01T21:09:08;39.80;;;28.20;;
33794;SDS011;51430;52.242;21.118;2023-03-01T21:11:56;39.60;;;31.60;;
33794;SDS011;51430;52.242;21.118;2023-03-01T21:14:44;39.10;;;29.30;;
33794;SDS011;51430;52.242;21.118;2023-03-01T21:17:32;43.70;;;33.20;;
33794;SDS011;51430;52.242;21.118;2023-03-01T21:20:23;44.30;;;35.30;;
33794;SDS011;51430;52.242;21.118;2023-03-01T21:23:11;47.40;;;36.80;;
33794;SDS011;51430;52.242;21.118;2023-03-01T21:26:02;48.00;;;37.80;;
33794;SDS011;51430;52.242;21.118;2023-03-01T21:28:52;47.90;;;36.20;;
33794;SDS011;51430;52.242;21.118;2023-03-01T21:31:40;47.80;;;35.50;;
33794;SDS011;51430;52.242;21.118;2023-03-01T21:34:40;50.30;;;38.70;;
33794;SDS011;51430;52.242;21.118;2023-03-01T21:37:27;46.30;;;38.20;;
33794;SDS011;51430;52.242;21.118;2023-03-01T21:40:15;45.20;;;34.40;;
33794;SDS011;51430;52.242;21.118;2023-03-01T21:43:01;40.30;;;31.10;;
33794;SDS011;51430;52.242;21.118;2023-03-01T21:45:48;44.80;;;33.70;;
33794;SDS011;51430;52.242;21.118;2023-03-01T21:48:36;42.70;;;34.10;;
33794;SDS011;51430;52.242;21.118;2023-03-01T21:51:26;43.40;;;33.30;;
33794;SDS011;51430;52.242;21.118;2023-03-01T21:54:16;44.30;;;33.30;;
33794;SDS011;51430;52.242;21.118;2023-03-01T21:59:54;46.50;;;35.10;;
33794;SDS011;51430;52.242;21.118;2023-03-01T22:02:44;46.90;;;36.30;;
33794;SDS011;51430;52.242;21.118;2023-03-01T22:05:32;46.60;;;35.00;;
33794;SDS011;51430;52.242;21.118;2023-03-01T22:08:19;46.80;;;35.40;;
33794;SDS011;51430;52.242;21.118;2023-03-01T22:11:06;51.70;;;38.20;;
33794;SDS011;51430;52.242;21.118;2023-03-01T22:13:54;46.50;;;35.90;;
33794;SDS011;51430;52.242;21.118;2023-03-01T22:16:41;45.70;;;35.90;;
33794;SDS011;51430;52.242;21.118;2023-03-01T22:19:30;53.40;;;40.90;;
33794;SDS011;51430;52.242;21.118;2023-03-01T22:25:56;52.10;;;40.70;;
33794;SDS011;51430;52.242;21.118;2023-03-01T22:28:46;45.00;;;35.80;;
33794;SDS011;51430;52.242;21.118;2023-03-01T22:31:33;43.00;;;35.30;;
33794;SDS011;51430;52.242;21.118;2023-03-01T22:34:20;47.80;;;35.80;;
33794;SDS011;51430;52.242;21.118;2023-03-01T22:37:08;44.00;;;33.40;;
33794;SDS011;51430;52.242;21.118;2023-03-01T22:39:57;45.60;;;35.10;;
33794;SDS011;51430;52.242;21.118;2023-03-01T22:42:43;47.60;;;37.50;;
33794;SDS011;51430;52.242;21.118;2023-03-01T22:45:31;50.00;;;38.60;;
33794;SDS011;51430;52.242;21.118;2023-03-01T22:48:18;53.10;;;41.70;;
33794;SDS011;51430;52.242;21.118;2023-03-01T22:51:05;55.80;;;42.10;;
33794;SDS011;51430;52.242;21.118;2023-03-01T22:53:52;54.10;;;42.50;;
33794;SDS011;51430;52.242;21.118;2023-03-01T22:56:40;60.00;;;42.80;;
33794;SDS011;51430;52.242;21.118;2023-03-01T22:59:28;56.90;;;42.60;;
33794;SDS011;51430;52.242;21.118;2023-03-01T23:02:15;59.20;;;44.20;;
33794;SDS011;51430;52.242;21.118;2023-03-01T23:05:03;59.00;;;44.20;;
33794;SDS011;51430;52.242;21.118;2023-03-01T23:07:49;59.10;;;43.10;;
33794;SDS011;51430;52.242;21.118;2023-03-01T23:10:38;58.50;;;42.90;;
33794;SDS011;51430;52.242;21.118;2023-03-01T23:13:26;54.50;;;41.30;;
33794;SDS011;51430;52.242;21.118;2023-03-01T23:16:13;55.80;;;41.80;;
33794;SDS011;51430;52.242;21.118;2023-03-01T23:19:01;52.80;;;40.20;;
33794;SDS011;51430;52.242;21.118;2023-03-01T23:21:50;53.10;;;39.20;;
33794;SDS011;51430;52.242;21.118;2023-03-01T23:24:39;51.50;;;40.20;;
33794;SDS011;51430;52.242;21.118;2023-03-01T23:27:26;53.20;;;41.00;;
33794;SDS011;51430;52.242;21.118;2023-03-01T23:30:17;59.40;;;45.30;;
33794;SDS011;51430;52.242;21.118;2023-03-01T23:33:06;60.60;;;47.20;;
33794;SDS011;51430;52.242;21.118;2023-03-01T23:35:52;62.60;;;47.00;;
33794;SDS011;51430;52.242;21.118;2023-03-01T23:38:40;72.80;;;53.30;;
33794;SDS011;51430;52.242;21.118;2023-03-01T23:41:28;87.60;;;66.00;;
33794;SDS011;51430;52.242;21.118;2023-03-01T23:44:17;63.90;;;47.90;;
33794;SDS011;51430;52.242;21.118;2023-03-01T23:47:05;58.40;;;45.30;;
33794;SDS011;51430;52.242;21.118;2023-03-01T23:49:52;86.90;;;64.30;;
33794;SDS011;51430;52.242;21.118;2023-03-01T23:52:42;71.30;;;53.90;;
33794;SDS011;51430;52.242;21.118;2023-03-01T23:55:29;57.90;;;43.90;;
33794;SDS011;51430;52.242;21.118;2023-03-01T23:58:16;59.50;;;45.90;;
